Погода Кляковона неделю

Тверская область, Россия

23 - 29 мая
  • 23мая
    Сегодня
    +6°
    +21°
    Небольшая облачность
    ВремяПогодаТемператураВлажностьДавлениеВетер, м/сВероятность осадков
    00:00Ясно и безоблачно+10°C51 %755 мм3.5 м/с2 %
    03:00Ясно и безоблачно+7°C59 %755 мм2.4 м/с2 %
    06:00Ясно и безоблачно+8°C68 %757 мм2.5 м/с2 %
    09:00Ясно и безоблачно+16°C51 %757 мм2.1 м/с2 %
    12:00Ясно и безоблачно+19°C38 %758 мм2.7 м/с2 %
    15:00Небольшая облачность+20°C35 %757 мм2.4 м/с2 %
    18:00Ясно и безоблачно+20°C37 %757 мм2.3 м/с2 %
    21:00Ясно и безоблачно+14°C56 %757 мм2.3 м/с2 %
  • 24мая
    Пятница
    +6°
    +21°
    Ясно и безоблачно
    ВремяПогодаТемператураВлажностьДавлениеВетер, м/сВероятность осадков
    00:00Практически безоблачно+10°C58 %758 мм2.8 м/с2 %
    03:00Ясно и безоблачно+7°C65 %759 мм2.4 м/с2 %
    06:00Ясно и безоблачно+9°C69 %760 мм2.1 м/с2 %
    09:00Ясно и безоблачно+16°C49 %760 мм2.1 м/с2 %
    12:00Ясно и безоблачно+19°C39 %760 мм2.5 м/с2 %
    15:00Ясно и безоблачно+20°C39 %760 мм2.5 м/с2 %
    18:00Ясно и безоблачно+20°C41 %759 мм2.6 м/с2 %
    21:00Ясно и безоблачно+15°C58 %758 мм2.4 м/с2 %
  • 25мая
    Суббота
    +9°
    +24°
    Ясно и безоблачно
    ВремяПогодаТемператураВлажностьДавлениеВетер, м/сВероятность осадков
    00:00Ясно и безоблачно+10°C60 %758 мм3.0 м/с2 %
    03:00Ясно и безоблачно+8°C62 %758 мм2.5 м/с2 %
    06:00Ясно и безоблачно+8°C71 %758 мм2.7 м/с2 %
    09:00Ясно и безоблачно+16°C55 %758 мм2.8 м/с2 %
    12:00Практически безоблачно+21°C41 %757 мм3.0 м/с2 %
    15:00Ясно и безоблачно+23°C38 %756 мм3.3 м/с2 %
    18:00Ясно и безоблачно+23°C41 %754 мм3.0 м/с2 %
    21:00Ясно и безоблачно+16°C64 %754 мм1.9 м/с2 %
  • 26мая
    Воскресенье
    +10°
    +25°
    Небольшая облачность
    ВремяПогодаТемператураВлажностьДавлениеВетер, м/сВероятность осадков
    00:00Ясно и безоблачно+12°C75 %754 мм2.3 м/с2 %
    03:00Ясно и безоблачно+10°C83 %754 мм2.4 м/с2 %
    06:00Ясно и безоблачно+12°C78 %754 мм2.7 м/с6 %
    09:00Ясно и безоблачно+20°C60 %754 мм1.8 м/с12 %
    12:00Ясно и безоблачно+24°C42 %754 мм1.4 м/с25 %
    15:00Небольшая облачность+25°C39 %754 мм1.6 м/с41 %
    18:00Небольшая облачность+24°C42 %754 мм1.8 м/с50 %
    21:00Ясно и безоблачно+18°C64 %754 мм2.2 м/с21 %
Мы используем cookies
Соглашаюсь